createdAt,value
2022-09-20T00:01:25.732Z,0.80
2022-09-20T00:03:54.389Z,1.00
2022-09-20T00:06:23.182Z,0.73
2022-09-20T00:08:49.808Z,0.80
2022-09-20T00:11:18.407Z,1.00
2022-09-20T00:13:45.840Z,0.93
2022-09-20T00:16:17.427Z,1.10
2022-09-20T00:18:44.051Z,1.00
2022-09-20T00:21:17.505Z,1.00
2022-09-20T00:23:44.264Z,0.83
2022-09-20T00:26:10.836Z,1.23
2022-09-20T00:28:37.446Z,1.20
2022-09-20T00:31:04.850Z,1.00
2022-09-20T00:33:49.928Z,0.87
2022-09-20T00:36:16.518Z,1.80
2022-09-20T00:38:43.176Z,0.80
2022-09-20T00:41:09.768Z,0.70
2022-09-20T00:43:43.968Z,0.90
2022-09-20T00:46:29.951Z,1.30
2022-09-20T00:49:18.674Z,0.80
2022-09-20T00:51:47.174Z,0.87
2022-09-20T00:54:18.182Z,0.97
2022-09-20T00:56:46.807Z,0.70
2022-09-20T00:59:23.195Z,1.00
2022-09-20T01:01:53.006Z,0.80
2022-09-20T01:04:21.099Z,0.93
2022-09-20T01:06:47.660Z,0.77
2022-09-20T01:09:14.233Z,0.87
2022-09-20T01:11:40.911Z,0.97
2022-09-20T01:14:07.502Z,1.10
2022-09-20T01:16:34.102Z,1.00
2022-09-20T01:19:02.385Z,0.90
2022-09-20T01:21:28.957Z,1.00
2022-09-20T01:24:13.080Z,1.00
2022-09-20T01:26:52.503Z,0.93
2022-09-20T01:29:36.188Z,1.00
2022-09-20T01:32:03.773Z,0.70
2022-09-20T01:34:34.920Z,0.90
2022-09-20T01:37:30.571Z,0.80
2022-09-20T01:40:12.484Z,0.70
2022-09-20T01:42:45.767Z,0.90
2022-09-20T01:45:28.348Z,0.83
2022-09-20T01:48:19.036Z,0.90
2022-09-20T01:51:12.382Z,0.90
2022-09-20T01:54:13.029Z,0.90
2022-09-20T01:56:48.500Z,0.93
2022-09-20T01:59:38.358Z,1.10
2022-09-20T02:02:26.118Z,0.90
2022-09-20T02:05:08.772Z,0.90
2022-09-20T02:07:35.272Z,1.00
2022-09-20T02:10:14.558Z,0.83
2022-09-20T02:12:54.244Z,1.10
2022-09-20T02:15:47.425Z,1.10
2022-09-20T02:18:37.450Z,1.00
2022-09-20T02:21:15.936Z,1.00
2022-09-20T02:23:56.134Z,1.10
2022-09-20T02:26:31.941Z,0.90
2022-09-20T02:29:14.863Z,1.10
2022-09-20T02:31:53.659Z,0.60
2022-09-20T02:34:25.689Z,1.10
2022-09-20T02:37:28.414Z,0.80
2022-09-20T02:40:08.533Z,1.00
2022-09-20T02:42:51.558Z,0.90
2022-09-20T02:45:28.486Z,0.77
2022-09-20T02:47:56.892Z,1.10
2022-09-20T02:50:35.840Z,0.83
2022-09-20T02:53:32.619Z,0.93
2022-09-20T02:56:19.418Z,1.07
2022-09-20T02:58:45.912Z,0.70
2022-09-20T03:01:46.567Z,1.00
2022-09-20T03:04:34.956Z,1.27
2022-09-20T03:07:06.438Z,0.70
2022-09-20T03:09:51.687Z,1.07
2022-09-20T03:12:33.509Z,0.70
2022-09-20T03:15:28.322Z,0.70
2022-09-20T03:18:03.695Z,1.00
2022-09-20T03:20:51.255Z,0.63
2022-09-20T03:23:54.872Z,0.70
2022-09-20T03:26:30.115Z,0.73
2022-09-20T03:29:19.313Z,1.00
2022-09-20T03:31:57.181Z,0.70
2022-09-20T03:34:33.590Z,1.10
2022-09-20T03:37:16.471Z,0.90
2022-09-20T03:40:04.434Z,0.80
2022-09-20T03:42:31.095Z,0.70
2022-09-20T03:45:46.413Z,1.60
2022-09-20T03:48:36.316Z,0.93
2022-09-20T03:51:23.662Z,0.87
2022-09-20T03:53:53.646Z,1.00
2022-09-20T03:56:29.139Z,1.00
2022-09-20T03:59:04.452Z,0.87
2022-09-20T04:01:58.646Z,0.93
2022-09-20T04:04:40.889Z,0.77
2022-09-20T04:07:31.710Z,0.90
2022-09-20T04:10:01.492Z,1.07
2022-09-20T04:12:47.987Z,0.80
2022-09-20T04:15:32.839Z,1.10
2022-09-20T04:18:16.844Z,0.80
2022-09-20T04:21:17.396Z,0.80
2022-09-20T04:23:49.820Z,1.00
2022-09-20T04:26:22.459Z,0.83
2022-09-20T04:29:01.864Z,1.00
2022-09-20T04:31:52.075Z,0.70
2022-09-20T04:34:45.961Z,1.00
2022-09-20T04:37:26.651Z,0.90
2022-09-20T04:40:04.650Z,0.83
2022-09-20T04:43:07.491Z,1.00
2022-09-20T04:46:02.257Z,1.33
2022-09-20T04:48:52.402Z,1.17
2022-09-20T04:51:21.722Z,1.80
2022-09-20T04:54:19.972Z,1.20
2022-09-20T04:56:57.873Z,1.50
2022-09-20T05:00:02.628Z,1.27
2022-09-20T05:02:49.006Z,1.40
2022-09-20T05:05:35.716Z,1.30
2022-09-20T05:08:31.308Z,1.63
2022-09-20T05:11:35.624Z,1.37
2022-09-20T05:14:22.770Z,1.40
2022-09-20T05:16:58.326Z,1.20
2022-09-20T05:19:48.430Z,1.87
2022-09-20T05:22:41.924Z,2.13
2022-09-20T05:25:28.739Z,1.50
2022-09-20T05:28:29.216Z,1.70
2022-09-20T05:31:06.144Z,1.53
2022-09-20T05:33:39.637Z,1.80
2022-09-20T05:36:34.215Z,1.40
2022-09-20T05:39:13.319Z,1.80
2022-09-20T05:41:52.420Z,1.57
2022-09-20T05:44:21.764Z,1.77
2022-09-20T05:47:26.181Z,1.43
2022-09-20T05:49:57.969Z,1.70
2022-09-20T05:52:38.974Z,1.30
2022-09-20T05:55:20.649Z,1.10
2022-09-20T05:58:23.652Z,1.00
2022-09-20T06:01:22.085Z,1.47
2022-09-20T06:03:55.652Z,2.07
2022-09-20T06:06:32.801Z,1.80
2022-09-20T06:09:28.024Z,2.40
2022-09-20T06:12:20.858Z,1.70
2022-09-20T06:15:03.933Z,1.50
2022-09-20T06:17:37.051Z,1.40
2022-09-20T06:20:16.604Z,1.47
2022-09-20T06:22:50.825Z,1.50
2022-09-20T06:25:22.619Z,1.60
2022-09-20T06:27:54.562Z,1.30
2022-09-20T06:30:33.937Z,1.20
2022-09-20T06:33:10.523Z,1.37
2022-09-20T06:35:43.891Z,1.33
2022-09-20T06:38:55.661Z,1.20
2022-09-20T06:41:28.504Z,1.43
2022-09-20T06:43:59.027Z,1.53
2022-09-20T06:46:32.936Z,1.50
2022-09-20T06:48:59.748Z,1.80
2022-09-20T06:51:27.592Z,1.30
2022-09-20T06:53:54.813Z,1.40
2022-09-20T06:56:25.014Z,1.60
2022-09-20T06:58:52.679Z,1.40
2022-09-20T07:01:29.343Z,1.40
2022-09-20T07:03:57.221Z,1.40
2022-09-20T07:06:23.805Z,1.40
2022-09-20T07:08:50.365Z,1.23
2022-09-20T07:11:17.399Z,1.20
2022-09-20T07:13:44.338Z,1.30
2022-09-20T07:16:13.549Z,1.40
2022-09-20T07:18:41.228Z,1.60
2022-09-20T07:21:15.964Z,1.27
2022-09-20T07:23:42.604Z,2.07
2022-09-20T07:26:26.472Z,1.90
2022-09-20T07:28:53.244Z,1.77
2022-09-20T07:31:21.081Z,1.77
2022-09-20T07:33:47.687Z,1.67
2022-09-20T07:36:14.360Z,1.70
2022-09-20T07:38:41.900Z,1.80
2022-09-20T07:41:08.828Z,1.87
2022-09-20T07:43:35.515Z,1.77
2022-09-20T07:46:02.192Z,1.67
2022-09-20T07:48:34.417Z,1.23
2022-09-20T07:51:08.566Z,1.30
2022-09-20T07:53:36.224Z,1.50
2022-09-20T07:56:04.944Z,1.90
2022-09-20T07:58:33.992Z,1.50
2022-09-20T08:01:08.503Z,1.20
2022-09-20T08:03:35.435Z,1.43
2022-09-20T08:06:06.991Z,1.63
2022-09-20T08:08:37.628Z,1.67
2022-09-20T08:11:08.255Z,1.53
2022-09-20T08:16:29.537Z,1.43
2022-09-20T08:19:00.808Z,1.37
2022-09-20T08:21:29.563Z,1.40
2022-09-20T08:23:56.239Z,1.80
2022-09-20T08:26:24.655Z,1.60
2022-09-20T08:28:52.988Z,1.43
2022-09-20T08:31:21.192Z,1.40
2022-09-20T08:33:48.310Z,1.50
2022-09-20T08:36:17.463Z,1.30
2022-09-20T08:41:34.839Z,1.23
2022-09-20T08:44:25.093Z,1.40
2022-09-20T08:47:25.186Z,1.50
2022-09-20T08:49:56.972Z,1.37
2022-09-20T08:52:37.715Z,1.70
2022-09-20T08:55:16.745Z,1.33
2022-09-20T08:57:43.643Z,1.40
2022-09-20T09:00:17.457Z,1.10
2022-09-20T09:02:44.038Z,1.37
2022-09-20T09:05:33.208Z,1.60
2022-09-20T09:08:04.557Z,1.33
2022-09-20T09:10:42.522Z,1.40
2022-09-20T09:13:14.724Z,1.43
2022-09-20T09:15:41.652Z,1.30
2022-09-20T09:18:10.423Z,1.20
2022-09-20T09:20:41.117Z,1.30
2022-09-20T09:23:09.040Z,1.47
2022-09-20T09:25:39.323Z,1.27
2022-09-20T09:28:08.584Z,1.60
2022-09-20T09:30:42.169Z,1.40
2022-09-20T09:33:24.915Z,1.20
2022-09-20T09:36:04.688Z,1.40
2022-09-20T09:38:36.038Z,1.57
2022-09-20T09:41:05.228Z,1.20
2022-09-20T09:43:35.290Z,1.33
2022-09-20T09:46:21.571Z,1.57
2022-09-20T09:49:05.114Z,1.50
2022-09-20T09:51:32.551Z,1.43
2022-09-20T09:53:59.151Z,1.60
2022-09-20T09:56:47.192Z,1.20
2022-09-20T09:59:33.068Z,1.33
2022-09-20T10:02:26.628Z,1.50
2022-09-20T10:05:03.502Z,1.43
2022-09-20T10:07:43.192Z,1.30
2022-09-20T10:10:43.432Z,1.37
2022-09-20T10:13:34.239Z,1.20
2022-09-20T10:16:29.665Z,1.40
2022-09-20T10:19:22.489Z,1.20
2022-09-20T10:22:12.428Z,1.20
2022-09-20T10:24:59.992Z,1.20
2022-09-20T10:27:41.911Z,1.33
2022-09-20T10:30:22.521Z,1.47
2022-09-20T10:33:18.524Z,1.47
2022-09-20T10:35:52.400Z,1.20
2022-09-20T10:38:45.392Z,1.17
2022-09-20T10:42:09.916Z,1.30
2022-09-20T10:45:01.892Z,1.10
2022-09-20T10:47:35.088Z,1.90
2022-09-20T10:50:10.800Z,1.73
2022-09-20T10:53:08.874Z,1.50
2022-09-20T10:56:22.004Z,1.27
2022-09-20T10:59:16.420Z,1.10
2022-09-20T11:01:45.804Z,1.47
2022-09-20T11:04:25.920Z,1.30
2022-09-20T11:07:09.039Z,1.63
2022-09-20T11:09:38.442Z,1.03
2022-09-20T11:12:21.438Z,1.47
2022-09-20T11:14:59.179Z,1.23
2022-09-20T11:17:31.765Z,1.30
2022-09-20T11:20:07.493Z,1.77
2022-09-20T11:22:40.783Z,1.63
2022-09-20T11:25:29.325Z,1.33
2022-09-20T11:28:00.074Z,1.50
2022-09-20T11:30:28.258Z,1.40
2022-09-20T11:33:11.012Z,1.43
2022-09-20T11:35:42.975Z,1.57
2022-09-20T11:38:32.881Z,1.70
2022-09-20T11:41:25.811Z,1.60
2022-09-20T11:43:53.048Z,1.37
2022-09-20T11:46:40.237Z,1.40
2022-09-20T11:49:16.097Z,1.37
2022-09-20T11:51:42.692Z,1.60
2022-09-20T11:54:46.067Z,1.63
2022-09-20T11:57:14.053Z,2.33
2022-09-20T11:59:40.936Z,1.70
2022-09-20T12:02:22.689Z,1.73
2022-09-20T12:04:53.168Z,1.33
2022-09-20T12:07:24.581Z,1.63
2022-09-20T12:09:58.038Z,1.60
2022-09-20T12:12:41.595Z,2.17
2022-09-20T12:15:34.966Z,1.53
2022-09-20T12:18:08.924Z,1.77
2022-09-20T12:20:35.848Z,1.50
2022-09-20T12:23:42.479Z,1.43
2022-09-20T12:26:20.991Z,1.63
2022-09-20T12:28:49.876Z,1.50
2022-09-20T12:31:22.210Z,1.40
2022-09-20T12:34:11.705Z,1.53
2022-09-20T12:36:46.447Z,1.50
2022-09-20T12:39:16.196Z,1.80
2022-09-20T12:41:46.240Z,1.30
2022-09-20T12:44:44.105Z,1.50
2022-09-20T12:47:10.627Z,1.43
2022-09-20T12:50:04.746Z,1.47
2022-09-20T12:53:03.954Z,1.40
2022-09-20T12:55:33.721Z,1.33
2022-09-20T12:58:14.118Z,1.40
2022-09-20T13:00:57.293Z,1.40
2022-09-20T13:03:37.621Z,1.60
2022-09-20T13:06:07.147Z,1.60
2022-09-20T13:08:49.144Z,1.40
2022-09-20T13:11:18.489Z,1.50
2022-09-20T13:14:04.093Z,1.40
2022-09-20T13:16:37.060Z,1.23
2022-09-20T13:19:12.369Z,1.37
2022-09-20T13:21:40.718Z,1.50
2022-09-20T13:24:08.122Z,1.60
2022-09-20T13:26:39.662Z,1.13
2022-09-20T13:29:07.482Z,1.37
2022-09-20T13:31:35.692Z,1.17
2022-09-20T13:34:22.874Z,1.60
2022-09-20T13:36:55.979Z,1.37
2022-09-20T13:39:28.871Z,1.50
2022-09-20T13:42:02.048Z,1.20
2022-09-20T13:44:33.361Z,1.47
2022-09-20T13:46:59.952Z,1.30
2022-09-20T13:49:30.777Z,1.20
2022-09-20T13:51:57.367Z,1.27
2022-09-20T13:54:31.052Z,1.50
2022-09-20T13:57:13.317Z,1.43
2022-09-20T13:59:45.081Z,1.57
2022-09-20T14:02:31.708Z,1.30
2022-09-20T14:05:03.720Z,1.50
2022-09-20T14:07:30.969Z,1.20
2022-09-20T14:09:58.803Z,1.20
2022-09-20T14:12:25.512Z,1.10
2022-09-20T14:14:52.078Z,1.53
2022-09-20T14:17:20.142Z,1.20
2022-09-20T14:19:48.804Z,1.40
2022-09-20T14:22:21.305Z,1.50
2022-09-20T14:25:04.285Z,1.20
2022-09-20T14:27:31.515Z,1.30
2022-09-20T14:29:58.493Z,1.47
2022-09-20T14:32:28.471Z,1.40
2022-09-20T14:35:17.725Z,1.53
2022-09-20T14:37:52.266Z,1.20
2022-09-20T14:40:22.771Z,1.57
2022-09-20T14:42:56.882Z,1.17
2022-09-20T14:45:33.208Z,1.40
2022-09-20T14:48:06.718Z,1.30
2022-09-20T14:50:37.795Z,1.37
2022-09-20T14:53:13.170Z,1.20
2022-09-20T14:56:00.623Z,1.53
2022-09-20T14:58:27.271Z,1.20
2022-09-20T15:00:58.540Z,1.50
2022-09-20T15:03:32.978Z,1.10
2022-09-20T15:05:59.592Z,1.20
2022-09-20T15:08:26.213Z,1.40
2022-09-20T15:10:52.808Z,1.13
2022-09-20T15:13:19.378Z,1.50
2022-09-20T15:15:49.098Z,1.43
2022-09-20T15:18:23.976Z,1.23
2022-09-20T15:20:50.771Z,1.40
2022-09-20T15:23:17.660Z,1.30
2022-09-20T15:25:44.288Z,1.40
2022-09-20T15:28:14.779Z,1.23
2022-09-20T15:30:41.369Z,1.27
2022-09-20T15:33:09.621Z,1.10
2022-09-20T15:35:36.382Z,1.10
2022-09-20T15:38:03.186Z,1.43
2022-09-20T15:40:30.053Z,1.40
2022-09-20T15:42:58.096Z,1.30
2022-09-20T15:45:26.472Z,1.60
2022-09-20T15:47:55.335Z,1.10
2022-09-20T15:50:25.541Z,1.47
2022-09-20T15:52:52.900Z,1.30
2022-09-20T15:55:21.830Z,1.30
2022-09-20T15:57:51.182Z,1.40
2022-09-20T16:00:18.258Z,1.33
2022-09-20T16:02:48.063Z,1.23
2022-09-20T16:05:14.692Z,1.77
2022-09-20T16:07:41.270Z,1.47
2022-09-20T16:10:08.328Z,1.40
2022-09-20T16:12:34.946Z,1.43
2022-09-20T16:15:01.510Z,1.20
2022-09-20T16:17:46.822Z,1.50
2022-09-20T16:20:13.403Z,1.40
2022-09-20T16:22:39.980Z,1.93
2022-09-20T16:25:08.299Z,1.30
2022-09-20T16:27:34.883Z,1.40
2022-09-20T16:30:02.420Z,1.47
2022-09-20T16:32:29.000Z,1.23
2022-09-20T16:34:55.703Z,1.50
2022-09-20T16:37:23.407Z,1.60
2022-09-20T16:39:50.005Z,1.77
2022-09-20T16:42:16.975Z,1.33
2022-09-20T16:44:43.540Z,1.67
2022-09-20T16:47:16.311Z,1.57
2022-09-20T16:49:42.899Z,1.77
2022-09-20T16:52:09.523Z,1.50
2022-09-20T16:54:36.301Z,1.90
2022-09-20T16:57:02.901Z,1.77
2022-09-20T16:59:29.484Z,2.23
2022-09-20T17:01:56.068Z,2.00
2022-09-20T17:04:22.704Z,2.57
2022-09-20T17:06:49.824Z,2.10
2022-09-20T17:09:16.458Z,2.03
2022-09-20T17:11:47.812Z,2.17
2022-09-20T17:14:15.064Z,2.00
2022-09-20T17:16:42.223Z,1.90
2022-09-20T17:19:10.997Z,2.37
2022-09-20T17:21:39.240Z,1.90
2022-09-20T17:24:07.009Z,1.67
2022-09-20T17:26:36.632Z,1.47
2022-09-20T17:29:05.713Z,2.00
2022-09-20T17:31:35.391Z,1.63
2022-09-20T17:34:06.446Z,1.60
2022-09-20T17:36:34.675Z,2.73
2022-09-20T17:39:04.537Z,1.80
2022-09-20T17:41:31.528Z,1.70
2022-09-20T17:43:58.992Z,2.40
2022-09-20T17:46:31.584Z,1.83
2022-09-20T17:49:00.479Z,1.43
2022-09-20T17:51:28.937Z,1.97
2022-09-20T17:53:58.518Z,2.13
2022-09-20T17:56:28.487Z,1.80
2022-09-20T17:58:59.400Z,2.07
2022-09-20T18:01:27.237Z,1.53
2022-09-20T18:03:54.837Z,1.57
2022-09-20T18:06:23.366Z,1.53
2022-09-20T18:08:54.416Z,1.50
2022-09-20T18:11:22.850Z,1.40
2022-09-20T18:13:49.690Z,1.00
2022-09-20T18:16:17.287Z,1.70
2022-09-20T18:18:44.696Z,1.37
2022-09-20T18:21:22.155Z,1.60
2022-09-20T18:23:48.951Z,1.87
2022-09-20T18:26:22.016Z,1.40
2022-09-20T18:29:12.383Z,1.60
2022-09-20T18:31:45.522Z,1.43
2022-09-20T18:34:19.503Z,1.40
2022-09-20T18:36:52.420Z,1.27
2022-09-20T18:39:23.121Z,1.40
2022-09-20T18:41:50.506Z,1.30
2022-09-20T18:44:18.328Z,1.20
2022-09-20T18:46:45.455Z,1.30
2022-09-20T18:49:13.481Z,1.07
2022-09-20T18:51:40.509Z,1.30
2022-09-20T18:54:09.955Z,1.50
2022-09-20T18:56:37.990Z,1.60
2022-09-20T18:59:06.572Z,1.50
2022-09-20T19:01:54.986Z,1.10
2022-09-20T19:04:27.394Z,1.40
2022-09-20T19:07:25.259Z,1.50
2022-09-20T19:10:10.655Z,1.57
2022-09-20T19:12:45.427Z,1.40
2022-09-20T19:15:21.385Z,1.10
2022-09-20T19:18:01.442Z,1.13
2022-09-20T19:21:13.191Z,1.50
2022-09-20T19:24:05.458Z,1.37
2022-09-20T19:26:37.840Z,1.60
2022-09-20T19:29:31.480Z,1.40
2022-09-20T19:31:58.904Z,1.80
2022-09-20T19:34:27.240Z,1.00
2022-09-20T19:37:06.519Z,1.40
2022-09-20T19:40:03.745Z,1.70
2022-09-20T19:42:53.763Z,1.60
2022-09-20T19:45:51.820Z,1.50
2022-09-20T19:48:38.994Z,1.70
2022-09-20T19:51:17.003Z,1.50
2022-09-20T19:53:43.791Z,1.10
2022-09-20T19:56:27.440Z,1.80
2022-09-20T19:58:55.886Z,1.37
2022-09-20T20:01:23.500Z,1.70
2022-09-20T20:03:51.036Z,1.20
2022-09-20T20:06:22.962Z,1.40
2022-09-20T20:09:06.498Z,1.47
2022-09-20T20:12:01.993Z,1.23
2022-09-20T20:14:44.063Z,1.30
2022-09-20T20:17:20.672Z,1.53
2022-09-20T20:19:54.029Z,1.40
2022-09-20T20:22:47.191Z,1.43
2022-09-20T20:25:26.597Z,1.20
2022-09-20T20:27:53.207Z,1.40
2022-09-20T20:30:20.197Z,1.43
2022-09-20T20:32:46.845Z,1.40
2022-09-20T20:35:14.962Z,1.50
2022-09-20T20:37:41.581Z,1.50
2022-09-20T20:40:12.091Z,1.40
2022-09-20T20:42:39.154Z,1.47
2022-09-20T20:45:06.226Z,1.10
2022-09-20T20:47:34.012Z,1.30
2022-09-20T20:50:00.572Z,1.40
2022-09-20T20:52:27.157Z,1.47
2022-09-20T20:54:53.729Z,1.40
2022-09-20T20:57:20.313Z,1.30
2022-09-20T20:59:46.920Z,1.50
2022-09-20T21:02:13.496Z,1.63
2022-09-20T21:04:40.640Z,1.77
2022-09-20T21:07:07.210Z,1.30
2022-09-20T21:09:33.773Z,1.17
2022-09-20T21:12:00.356Z,1.17
2022-09-20T21:14:26.920Z,1.20
2022-09-20T21:16:53.537Z,1.20
2022-09-20T21:19:22.307Z,1.20
2022-09-20T21:21:48.928Z,1.30
2022-09-20T21:24:17.086Z,1.20
2022-09-20T21:26:43.836Z,1.27
2022-09-20T21:29:11.122Z,1.00
2022-09-20T21:31:39.199Z,1.00
2022-09-20T21:34:09.704Z,1.13
2022-09-20T21:36:36.732Z,1.20
2022-09-20T21:39:03.665Z,1.30
2022-09-20T21:41:34.599Z,1.30
2022-09-20T21:44:02.383Z,0.97
2022-09-20T21:46:33.649Z,1.20
2022-09-20T21:49:01.646Z,1.20
2022-09-20T21:51:31.098Z,1.30
2022-09-20T21:53:59.368Z,1.20
2022-09-20T21:56:27.469Z,0.90
2022-09-20T21:58:54.366Z,1.00
2022-09-20T22:01:22.238Z,1.47
2022-09-20T22:03:54.835Z,1.40
2022-09-20T22:06:25.904Z,1.60
2022-09-20T22:08:54.184Z,1.20
2022-09-20T22:11:21.839Z,1.20
2022-09-20T22:13:49.658Z,1.00
2022-09-20T22:16:20.977Z,1.20
2022-09-20T22:18:47.818Z,1.17
2022-09-20T22:21:21.858Z,1.00
2022-09-20T22:23:49.413Z,1.10
2022-09-20T22:26:17.813Z,1.30
2022-09-20T22:28:44.422Z,1.00
2022-09-20T22:31:15.569Z,1.20
2022-09-20T22:33:43.627Z,1.10
2022-09-20T22:36:11.104Z,1.10
2022-09-20T22:38:37.688Z,1.00
2022-09-20T22:41:04.337Z,1.30
2022-09-20T22:43:32.105Z,1.40
2022-09-20T22:46:03.417Z,1.40
2022-09-20T22:48:33.278Z,1.00
2022-09-20T22:51:04.515Z,1.10
2022-09-20T22:53:31.378Z,1.23
2022-09-20T22:56:21.053Z,1.20
2022-09-20T22:58:49.342Z,1.07
2022-09-20T23:01:19.907Z,1.00
2022-09-20T23:03:47.862Z,1.07
2022-09-20T23:06:22.406Z,1.10
2022-09-20T23:08:49.434Z,1.00
2022-09-20T23:11:16.137Z,1.07
2022-09-20T23:13:43.071Z,1.00
2022-09-20T23:16:29.226Z,0.97
2022-09-20T23:18:56.787Z,1.40
2022-09-20T23:21:23.458Z,1.10
2022-09-20T23:23:54.155Z,1.27
2022-09-20T23:26:20.742Z,1.00
2022-09-20T23:28:54.751Z,1.13
2022-09-20T23:31:21.356Z,1.03
2022-09-20T23:33:52.145Z,1.10
2022-09-20T23:36:18.975Z,0.80
2022-09-20T23:38:45.640Z,1.00
2022-09-20T23:41:13.293Z,0.80
2022-09-20T23:43:40.049Z,1.60
2022-09-20T23:46:06.882Z,1.00
2022-09-20T23:48:36.015Z,1.00
2022-09-20T23:51:03.645Z,1.10
2022-09-20T23:53:30.246Z,1.10
2022-09-20T23:55:56.807Z,1.00
2022-09-20T23:58:23.389Z,0.80
